createdAt,value
2022-10-12T00:01:03.828Z,2.60
2022-10-12T00:03:30.352Z,2.50
2022-10-12T00:06:06.246Z,2.28
2022-10-12T00:08:35.121Z,2.45
2022-10-12T00:11:02.051Z,2.60
2022-10-12T00:13:28.816Z,2.38
2022-10-12T00:15:55.664Z,2.63
2022-10-12T00:18:22.298Z,2.58
2022-10-12T00:20:48.837Z,2.45
2022-10-12T00:23:15.407Z,2.50
2022-10-12T00:25:42.398Z,2.88
2022-10-12T00:28:09.027Z,2.55
2022-10-12T00:30:40.119Z,2.38
2022-10-12T00:33:06.719Z,2.67
2022-10-12T00:35:33.179Z,2.80
2022-10-12T00:37:59.727Z,2.65
2022-10-12T00:40:26.383Z,2.40
2022-10-12T00:42:53.107Z,2.90
2022-10-12T00:45:19.700Z,2.38
2022-10-12T00:47:59.918Z,2.97
2022-10-12T00:50:35.287Z,2.55
2022-10-12T00:53:07.887Z,2.05
2022-10-12T00:55:40.659Z,2.53
2022-10-12T00:58:08.388Z,2.22
2022-10-12T01:00:37.103Z,2.25
2022-10-12T01:03:05.691Z,2.03
2022-10-12T01:05:33.271Z,2.28
2022-10-12T01:08:00.698Z,2.80
2022-10-12T01:10:27.862Z,2.42
2022-10-12T01:12:56.156Z,2.17
2022-10-12T01:15:27.268Z,2.38
2022-10-12T01:18:14.873Z,2.30
2022-10-12T01:21:09.316Z,2.80
2022-10-12T01:23:55.045Z,2.60
2022-10-12T01:26:40.583Z,2.20
2022-10-12T01:29:25.685Z,2.03
2022-10-12T01:32:01.770Z,1.73
2022-10-12T01:34:40.130Z,2.30
2022-10-12T01:37:17.658Z,2.17
2022-10-12T01:39:52.929Z,2.30
2022-10-12T01:42:37.252Z,2.38
2022-10-12T01:45:06.821Z,2.35
2022-10-12T01:47:36.003Z,2.28
2022-10-12T01:50:04.548Z,2.60
2022-10-12T01:52:39.668Z,2.20
2022-10-12T01:55:29.805Z,2.05
2022-10-12T01:58:09.183Z,2.00
2022-10-12T02:00:46.330Z,1.80
2022-10-12T02:03:35.988Z,2.00
2022-10-12T02:06:12.021Z,1.80
2022-10-12T02:08:50.891Z,2.10
2022-10-12T02:11:20.039Z,2.47
2022-10-12T02:14:13.036Z,2.22
2022-10-12T02:16:45.934Z,1.90
2022-10-12T02:19:17.776Z,2.13
2022-10-12T02:21:46.496Z,1.83
2022-10-12T02:24:15.730Z,1.88
2022-10-12T02:26:44.164Z,1.90
2022-10-12T02:29:16.077Z,1.88
2022-10-12T02:31:48.316Z,2.00
2022-10-12T02:34:18.957Z,1.70
2022-10-12T02:37:01.269Z,1.85
2022-10-12T02:39:37.791Z,1.75
2022-10-12T02:42:10.327Z,1.88
2022-10-12T02:44:40.350Z,1.95
2022-10-12T02:47:09.712Z,1.83
2022-10-12T02:49:36.797Z,2.10
2022-10-12T02:52:05.511Z,1.67
2022-10-12T02:54:32.123Z,2.10
2022-10-12T02:56:58.686Z,1.70
2022-10-12T02:59:25.343Z,1.95
2022-10-12T03:01:51.833Z,2.10
2022-10-12T03:04:18.391Z,2.22
2022-10-12T03:06:45.085Z,2.22
2022-10-12T03:09:11.588Z,2.03
2022-10-12T03:11:38.141Z,1.98
2022-10-12T03:14:04.691Z,2.10
2022-10-12T03:16:31.500Z,2.00
2022-10-12T03:18:58.509Z,1.67
2022-10-12T03:21:25.034Z,1.90
2022-10-12T03:23:51.720Z,1.90
2022-10-12T03:26:18.271Z,1.70
2022-10-12T03:28:45.137Z,1.67
2022-10-12T03:31:13.079Z,1.58
2022-10-12T03:33:39.603Z,1.90
2022-10-12T03:36:06.546Z,1.80
2022-10-12T03:38:33.070Z,1.75
2022-10-12T03:41:04.197Z,1.77
2022-10-12T03:43:33.944Z,1.58
2022-10-12T03:46:00.477Z,1.80
2022-10-12T03:48:27.100Z,2.05
2022-10-12T03:50:53.715Z,2.03
2022-10-12T03:53:20.426Z,1.90
2022-10-12T03:55:46.977Z,1.60
2022-10-12T03:58:13.705Z,2.30
2022-10-12T04:00:40.380Z,1.80
2022-10-12T04:03:06.992Z,2.10
2022-10-12T04:05:33.773Z,1.70
2022-10-12T04:08:00.321Z,2.03
2022-10-12T04:10:27.073Z,1.50
2022-10-12T04:12:53.717Z,1.63
2022-10-12T04:15:20.227Z,1.67
2022-10-12T04:17:46.894Z,1.85
2022-10-12T04:20:13.462Z,1.60
2022-10-12T04:22:40.130Z,1.58
2022-10-12T04:25:06.916Z,1.50
2022-10-12T04:27:33.468Z,1.65
2022-10-12T04:29:59.975Z,2.10
2022-10-12T04:32:27.069Z,1.77
2022-10-12T04:34:53.590Z,1.70
2022-10-12T04:37:20.064Z,1.63
2022-10-12T04:39:46.759Z,1.70
2022-10-12T04:42:13.523Z,1.98
2022-10-12T04:44:40.048Z,1.70
2022-10-12T04:47:06.802Z,1.45
2022-10-12T04:49:33.322Z,1.92
2022-10-12T04:51:59.850Z,1.50
2022-10-12T04:54:26.544Z,2.20
2022-10-12T04:56:53.173Z,2.30
2022-10-12T04:59:19.673Z,2.30
2022-10-12T05:01:46.264Z,1.85
2022-10-12T05:04:12.831Z,2.10
2022-10-12T05:06:39.383Z,1.90
2022-10-12T05:09:06.154Z,2.20
2022-10-12T05:11:32.721Z,1.80
2022-10-12T05:13:59.248Z,1.83
2022-10-12T05:16:25.790Z,2.28
2022-10-12T05:18:52.445Z,1.85
2022-10-12T05:21:19.699Z,1.73
2022-10-12T05:23:53.030Z,1.65
2022-10-12T05:26:19.658Z,1.63
2022-10-12T05:28:46.518Z,1.40
2022-10-12T05:31:13.267Z,1.95
2022-10-12T05:33:39.999Z,2.33
2022-10-12T05:36:06.883Z,2.08
2022-10-12T05:38:33.526Z,1.70
2022-10-12T05:41:00.907Z,1.75
2022-10-12T05:43:28.109Z,1.45
2022-10-12T05:45:54.726Z,1.50
2022-10-12T05:48:21.322Z,1.73
2022-10-12T05:50:47.846Z,1.80
2022-10-12T05:53:14.399Z,1.40
2022-10-12T05:55:40.979Z,1.90
2022-10-12T05:58:07.596Z,1.63
2022-10-12T06:00:34.142Z,2.00
2022-10-12T06:03:03.609Z,1.83
2022-10-12T06:05:30.202Z,2.05
2022-10-12T06:07:56.755Z,2.15
2022-10-12T06:10:27.649Z,1.90
2022-10-12T06:12:56.373Z,1.70
2022-10-12T06:15:23.033Z,2.08
2022-10-12T06:17:49.610Z,1.90
2022-10-12T06:20:16.218Z,2.13
2022-10-12T06:22:42.778Z,2.65
2022-10-12T06:25:09.716Z,2.25
2022-10-12T06:27:36.229Z,2.30
2022-10-12T06:30:03.303Z,2.42
2022-10-12T06:32:29.863Z,2.05
2022-10-12T06:34:56.632Z,2.35
2022-10-12T06:37:47.964Z,2.45
2022-10-12T06:40:10.342Z,2.33
2022-10-12T06:42:37.197Z,2.15
2022-10-12T06:45:06.188Z,2.20
2022-10-12T06:47:32.912Z,2.13
2022-10-12T06:49:59.422Z,2.53
2022-10-12T06:52:25.980Z,2.28
2022-10-12T06:54:52.572Z,2.20
2022-10-12T06:57:19.090Z,1.95
2022-10-12T06:59:45.598Z,2.63
2022-10-12T07:02:12.118Z,2.28
2022-10-12T07:04:38.716Z,2.45
2022-10-12T07:07:05.270Z,2.38
2022-10-12T07:09:31.905Z,2.55
2022-10-12T07:11:58.523Z,2.47
2022-10-12T07:14:25.104Z,2.42
2022-10-12T07:16:55.263Z,2.78
2022-10-12T07:19:22.199Z,2.53
2022-10-12T07:21:48.808Z,3.03
2022-10-12T07:24:15.413Z,2.50
2022-10-12T07:26:42.077Z,2.30
2022-10-12T07:29:09.271Z,3.10
2022-10-12T07:31:39.740Z,2.85
2022-10-12T07:34:06.264Z,2.35
2022-10-12T07:36:57.428Z,2.60
2022-10-12T07:39:21.466Z,2.22
2022-10-12T07:41:48.716Z,2.65
2022-10-12T07:44:15.476Z,2.30
2022-10-12T07:46:42.541Z,2.35
2022-10-12T07:49:11.351Z,2.10
2022-10-12T07:51:38.272Z,2.00
2022-10-12T07:54:04.990Z,1.80
2022-10-12T07:56:31.806Z,2.30
2022-10-12T07:58:58.966Z,2.40
2022-10-12T08:01:28.244Z,2.05
2022-10-12T08:04:00.268Z,2.10
2022-10-12T08:06:31.539Z,2.25
2022-10-12T08:08:59.393Z,2.60
2022-10-12T08:11:25.951Z,2.08
2022-10-12T08:13:52.518Z,1.77
2022-10-12T08:16:21.198Z,1.95
2022-10-12T08:18:48.187Z,2.28
2022-10-12T08:21:16.837Z,1.83
2022-10-12T08:23:45.078Z,1.95
2022-10-12T08:26:12.727Z,2.20
2022-10-12T08:28:39.370Z,2.17
2022-10-12T08:31:11.416Z,1.98
2022-10-12T08:33:38.057Z,2.28
2022-10-12T08:36:06.571Z,2.40
2022-10-12T08:38:34.100Z,1.92
2022-10-12T08:41:11.333Z,2.10
2022-10-12T08:43:48.750Z,2.45
2022-10-12T08:46:21.429Z,1.85
2022-10-12T08:48:55.355Z,2.42
2022-10-12T08:51:26.074Z,2.15
2022-10-12T08:53:58.506Z,1.73
2022-10-12T08:56:25.355Z,2.10
2022-10-12T08:58:53.218Z,1.92
2022-10-12T09:01:37.126Z,2.00
2022-10-12T09:04:41.892Z,1.75
2022-10-12T09:07:14.777Z,1.77
2022-10-12T09:10:06.285Z,2.00
2022-10-12T09:13:10.460Z,2.00
2022-10-12T09:16:05.804Z,1.83
2022-10-12T09:18:41.809Z,1.52
2022-10-12T09:21:16.867Z,2.10
2022-10-12T09:23:46.725Z,5.75
2022-10-12T09:26:13.307Z,2.00
2022-10-12T09:28:44.115Z,1.90
2022-10-12T09:31:10.733Z,1.88
2022-10-12T09:33:46.066Z,1.40
2022-10-12T09:36:19.538Z,1.52
2022-10-12T09:38:47.529Z,1.02
2022-10-12T09:41:22.845Z,1.05
2022-10-12T09:43:56.086Z,1.15
2022-10-12T09:46:55.831Z,1.35
2022-10-12T09:49:22.377Z,1.77
2022-10-12T09:51:59.836Z,1.83
2022-10-12T09:54:27.970Z,1.40
2022-10-12T09:56:55.302Z,1.17
2022-10-12T09:59:32.343Z,1.30
2022-10-12T10:02:09.645Z,1.33
2022-10-12T10:04:37.842Z,0.82
2022-10-12T10:07:30.778Z,1.10
2022-10-12T10:10:14.423Z,1.27
2022-10-12T10:12:52.114Z,1.25
2022-10-12T10:15:35.620Z,1.15
2022-10-12T10:18:05.958Z,1.20
2022-10-12T10:20:36.600Z,1.00
2022-10-12T10:23:05.232Z,1.08
2022-10-12T10:25:33.255Z,0.95
2022-10-12T10:28:21.259Z,1.20
2022-10-12T10:31:21.916Z,1.10
2022-10-12T10:34:11.282Z,1.30
2022-10-12T10:36:43.965Z,1.10
2022-10-12T10:39:21.522Z,1.30
2022-10-12T10:41:48.475Z,1.25
2022-10-12T10:44:33.563Z,1.40
2022-10-12T10:47:04.790Z,1.00
2022-10-12T10:49:55.586Z,1.10
2022-10-12T10:52:23.796Z,1.20
2022-10-12T10:55:14.788Z,1.00
2022-10-12T10:57:50.329Z,1.30
2022-10-12T11:00:37.819Z,1.30
2022-10-12T11:03:23.739Z,1.02
2022-10-12T11:06:05.619Z,1.13
2022-10-12T11:08:36.844Z,0.90
2022-10-12T11:11:15.147Z,1.30
2022-10-12T11:13:47.766Z,1.08
2022-10-12T11:16:28.053Z,1.17
2022-10-12T11:18:57.824Z,1.40
2022-10-12T11:21:45.847Z,1.25
2022-10-12T11:24:17.381Z,1.00
2022-10-12T11:26:56.947Z,1.10
2022-10-12T11:29:23.944Z,0.90
2022-10-12T11:32:00.609Z,1.02
2022-10-12T11:34:31.564Z,0.88
2022-10-12T11:39:49.784Z,0.80
2022-10-12T11:42:28.591Z,1.10
2022-10-12T11:44:55.200Z,1.10
2022-10-12T11:47:47.101Z,1.38
2022-10-12T11:50:28.587Z,0.98
2022-10-12T11:52:57.828Z,1.40
2022-10-12T11:55:41.117Z,1.17
2022-10-12T11:58:24.382Z,1.08
2022-10-12T12:01:29.470Z,1.08
2022-10-12T12:04:39.807Z,1.30
2022-10-12T12:07:06.500Z,1.23
2022-10-12T12:09:39.830Z,1.08
2022-10-12T12:12:16.126Z,1.00
2022-10-12T12:14:54.943Z,0.93
2022-10-12T12:17:26.915Z,1.08
2022-10-12T12:20:00.037Z,1.40
2022-10-12T12:22:54.566Z,1.20
2022-10-12T12:25:32.808Z,1.17
2022-10-12T12:28:21.813Z,1.40
2022-10-12T12:30:59.504Z,1.17
2022-10-12T12:33:32.258Z,1.52
2022-10-12T12:36:07.856Z,1.25
2022-10-12T12:38:40.120Z,1.42
2022-10-12T12:41:12.223Z,1.17
2022-10-12T12:43:56.157Z,1.30
2022-10-12T12:46:25.011Z,1.38
2022-10-12T12:48:51.444Z,1.20
2022-10-12T12:51:24.816Z,1.27
2022-10-12T12:54:00.054Z,1.33
2022-10-12T12:56:29.319Z,1.08
2022-10-12T12:59:23.918Z,1.20
2022-10-12T13:01:53.182Z,1.15
2022-10-12T13:04:54.437Z,1.58
2022-10-12T13:07:45.274Z,1.30
2022-10-12T13:10:37.459Z,1.13
2022-10-12T13:13:15.889Z,1.38
2022-10-12T13:15:55.111Z,1.05
2022-10-12T13:18:46.417Z,1.48
2022-10-12T13:21:21.722Z,1.48
2022-10-12T13:23:51.525Z,1.10
2022-10-12T13:26:24.459Z,1.02
2022-10-12T13:28:52.643Z,1.42
2022-10-12T13:31:31.934Z,1.40
2022-10-12T13:34:42.538Z,0.88
2022-10-12T13:37:14.940Z,1.30
2022-10-12T13:39:44.782Z,1.27
2022-10-12T13:42:26.542Z,1.23
2022-10-12T13:44:53.873Z,1.52
2022-10-12T13:47:32.756Z,0.93
2022-10-12T13:50:00.097Z,1.42
2022-10-12T13:52:32.928Z,1.15
2022-10-12T13:55:01.068Z,1.02
2022-10-12T13:57:39.088Z,1.33
2022-10-12T14:00:25.044Z,1.30
2022-10-12T14:03:00.497Z,1.33
2022-10-12T14:05:30.053Z,1.10
2022-10-12T14:08:02.453Z,1.05
2022-10-12T14:10:32.908Z,1.20
2022-10-12T14:13:02.082Z,1.30
2022-10-12T14:15:33.860Z,1.08
2022-10-12T14:18:00.344Z,1.25
2022-10-12T14:20:37.365Z,0.98
2022-10-12T14:23:13.123Z,1.15
2022-10-12T14:25:55.070Z,1.00
2022-10-12T14:28:30.955Z,1.20
2022-10-12T14:30:57.607Z,1.40
2022-10-12T14:33:26.712Z,1.50
2022-10-12T14:36:25.851Z,1.02
2022-10-12T14:38:53.225Z,1.27
2022-10-12T14:41:28.697Z,1.33
2022-10-12T14:44:14.272Z,1.13
2022-10-12T14:46:46.375Z,1.30
2022-10-12T14:49:32.662Z,1.30
2022-10-12T14:51:59.978Z,1.48
2022-10-12T14:54:26.548Z,1.20
2022-10-12T14:56:53.177Z,1.30
2022-10-12T14:59:19.753Z,1.48
2022-10-12T15:01:50.927Z,1.50
2022-10-12T15:04:18.399Z,1.63
2022-10-12T15:06:50.488Z,1.63
2022-10-12T15:09:17.579Z,1.73
2022-10-12T15:11:44.152Z,1.65
2022-10-12T15:14:11.683Z,2.00
2022-10-12T15:16:39.000Z,2.28
2022-10-12T15:19:05.584Z,1.60
2022-10-12T15:21:32.149Z,1.48
2022-10-12T15:23:58.727Z,1.38
2022-10-12T15:26:25.349Z,1.15
2022-10-12T15:28:51.983Z,1.70
2022-10-12T15:31:19.189Z,1.48
2022-10-12T15:33:46.009Z,1.52
2022-10-12T15:36:12.704Z,1.88
2022-10-12T15:38:39.870Z,1.77
2022-10-12T15:41:13.286Z,1.48
2022-10-12T15:43:41.995Z,1.77
2022-10-12T15:46:12.241Z,1.60
2022-10-12T15:48:40.116Z,1.70
2022-10-12T15:51:18.312Z,2.00
2022-10-12T15:53:44.973Z,1.73
2022-10-12T15:56:14.343Z,1.70
2022-10-12T15:58:41.206Z,1.52
2022-10-12T16:01:12.747Z,2.45
2022-10-12T16:03:39.804Z,3.10
2022-10-12T16:06:08.227Z,2.05
2022-10-12T16:08:35.267Z,1.88
2022-10-12T16:11:12.607Z,2.13
2022-10-12T16:13:46.849Z,1.85
2022-10-12T16:16:19.291Z,1.70
2022-10-12T16:18:45.899Z,2.95
2022-10-12T16:21:12.946Z,1.95
2022-10-12T16:23:41.212Z,1.73
2022-10-12T16:26:11.654Z,1.80
2022-10-12T16:28:38.392Z,1.60
2022-10-12T16:31:15.426Z,1.80
2022-10-12T16:33:42.488Z,1.50
2022-10-12T16:36:11.523Z,1.67
2022-10-12T16:38:38.042Z,4.45
2022-10-12T16:41:09.633Z,2.65
2022-10-12T16:43:36.190Z,3.22
2022-10-12T16:46:03.432Z,2.47
2022-10-12T16:48:30.114Z,4.07
2022-10-12T16:50:57.129Z,3.63
2022-10-12T16:53:23.695Z,3.35
2022-10-12T16:55:50.314Z,2.75
2022-10-12T16:58:17.027Z,2.80
2022-10-12T17:00:43.901Z,2.83
2022-10-12T17:03:14.067Z,2.60
2022-10-12T17:05:41.978Z,2.92
2022-10-12T17:08:12.633Z,3.65
2022-10-12T17:10:44.248Z,3.28
2022-10-12T17:13:13.462Z,3.60
2022-10-12T17:15:42.075Z,2.90
2022-10-12T17:18:11.244Z,3.97
2022-10-12T17:20:37.968Z,3.47
2022-10-12T17:23:04.576Z,3.28
2022-10-12T17:25:31.341Z,3.22
2022-10-12T17:27:57.921Z,3.90
2022-10-12T17:30:24.788Z,3.97
2022-10-12T17:32:51.304Z,3.17
2022-10-12T17:35:17.998Z,3.20
2022-10-12T17:37:44.579Z,3.30
2022-10-12T17:40:11.512Z,3.90
2022-10-12T17:42:38.173Z,3.42
2022-10-12T17:45:05.375Z,3.60
2022-10-12T17:47:32.012Z,3.30
2022-10-12T17:49:58.949Z,3.45
2022-10-12T17:52:27.934Z,3.70
2022-10-12T17:54:54.570Z,3.35
2022-10-12T17:57:23.961Z,3.85
2022-10-12T17:59:50.527Z,2.92
2022-10-12T18:02:17.018Z,4.00
2022-10-12T18:04:43.516Z,3.75
2022-10-12T18:07:10.989Z,3.35
2022-10-12T18:09:37.487Z,3.60
2022-10-12T18:12:04.023Z,3.50
2022-10-12T18:14:30.599Z,3.85
2022-10-12T18:16:58.751Z,3.78
2022-10-12T18:19:25.300Z,3.08
2022-10-12T18:21:51.833Z,3.38
2022-10-12T18:24:18.741Z,3.20
2022-10-12T18:26:47.124Z,3.78
2022-10-12T18:29:17.462Z,3.20
2022-10-12T18:31:45.459Z,3.63
2022-10-12T18:34:12.140Z,3.00
2022-10-12T18:36:40.751Z,3.17
2022-10-12T18:39:07.383Z,2.65
2022-10-12T18:41:34.111Z,3.20
2022-10-12T18:44:02.490Z,2.50
2022-10-12T18:46:33.042Z,3.00
2022-10-12T18:49:05.015Z,3.08
2022-10-12T18:51:35.682Z,2.58
2022-10-12T18:54:03.369Z,3.42
2022-10-12T18:56:32.086Z,2.78
2022-10-12T18:58:59.936Z,2.95
2022-10-12T19:01:28.255Z,3.17
2022-10-12T19:03:56.224Z,3.20
2022-10-12T19:06:29.933Z,3.00
2022-10-12T19:08:57.524Z,3.20
2022-10-12T19:11:26.266Z,3.03
2022-10-12T19:13:56.392Z,3.83
2022-10-12T19:16:23.614Z,4.65
2022-10-12T19:18:59.339Z,5.25
2022-10-12T19:21:26.924Z,5.25
2022-10-12T19:23:54.421Z,4.85
2022-10-12T19:26:23.927Z,5.15
2022-10-12T19:28:53.165Z,5.80
2022-10-12T19:31:23.235Z,5.60
2022-10-12T19:33:50.294Z,5.70
2022-10-12T19:36:18.357Z,5.25
2022-10-12T19:38:48.133Z,5.95
2022-10-12T19:41:15.077Z,4.88
2022-10-12T19:43:43.147Z,5.25
2022-10-12T19:46:11.471Z,5.00
2022-10-12T19:48:39.172Z,6.45
2022-10-12T19:51:11.680Z,6.47
2022-10-12T19:53:39.593Z,6.30
2022-10-12T19:56:17.268Z,5.53
2022-10-12T19:58:46.695Z,5.50
2022-10-12T20:01:15.515Z,4.47
2022-10-12T20:03:47.473Z,5.30
2022-10-12T20:06:14.873Z,4.38
2022-10-12T20:08:43.768Z,4.32
2022-10-12T20:11:17.843Z,4.57
2022-10-12T20:13:46.785Z,4.07
2022-10-12T20:16:13.978Z,4.70
2022-10-12T20:18:41.855Z,4.53
2022-10-12T20:21:11.551Z,4.25
2022-10-12T20:23:40.335Z,4.00
2022-10-12T20:26:09.640Z,4.07
2022-10-12T20:28:37.854Z,4.22
2022-10-12T20:31:05.711Z,4.15
2022-10-12T20:33:33.539Z,4.65
2022-10-12T20:36:00.713Z,4.85
2022-10-12T20:38:27.858Z,4.57
2022-10-12T20:41:10.201Z,4.68
2022-10-12T20:43:40.323Z,5.35
2022-10-12T20:46:10.275Z,4.93
2022-10-12T20:48:39.683Z,4.57
2022-10-12T20:51:07.910Z,4.95
2022-10-12T20:53:35.568Z,4.40
2022-10-12T20:56:06.578Z,4.80
2022-10-12T20:58:33.467Z,4.78
2022-10-12T21:01:11.707Z,4.82
2022-10-12T21:03:38.816Z,4.75
2022-10-12T21:06:10.798Z,5.22
2022-10-12T21:08:37.784Z,5.15
2022-10-12T21:11:05.407Z,4.65
2022-10-12T21:13:36.583Z,4.75
2022-10-12T21:16:05.523Z,4.82
2022-10-12T21:18:37.601Z,5.18
2022-10-12T21:21:14.386Z,4.63
2022-10-12T21:23:42.273Z,4.97
2022-10-12T21:26:17.496Z,5.25
2022-10-12T21:28:44.840Z,4.85
2022-10-12T21:31:12.570Z,5.13
2022-10-12T21:33:39.702Z,5.00
2022-10-12T21:36:07.796Z,4.63
2022-10-12T21:38:35.248Z,5.43
2022-10-12T21:41:01.770Z,4.88
2022-10-12T21:43:28.367Z,4.90
2022-10-12T21:45:55.118Z,4.90
2022-10-12T21:48:21.765Z,4.95
2022-10-12T21:50:48.399Z,4.57
2022-10-12T21:53:15.026Z,4.72
2022-10-12T21:55:41.685Z,5.13
2022-10-12T21:58:08.295Z,5.65
2022-10-12T22:00:34.882Z,4.90
2022-10-12T22:03:01.772Z,4.97
2022-10-12T22:05:30.328Z,4.90
2022-10-12T22:07:57.090Z,4.93
2022-10-12T22:10:23.719Z,4.40
2022-10-12T22:12:50.273Z,4.40
2022-10-12T22:15:17.029Z,4.70
2022-10-12T22:17:43.619Z,4.65
2022-10-12T22:20:10.889Z,5.43
2022-10-12T22:22:41.670Z,4.55
2022-10-12T22:25:08.383Z,4.53
2022-10-12T22:27:37.381Z,5.15
2022-10-12T22:30:11.569Z,5.20
2022-10-12T22:32:38.080Z,5.22
2022-10-12T22:35:04.924Z,5.57
2022-10-12T22:37:31.456Z,5.18
2022-10-12T22:39:58.194Z,4.50
2022-10-12T22:42:24.906Z,5.25
2022-10-12T22:44:51.573Z,4.75
2022-10-12T22:47:18.182Z,4.53
2022-10-12T22:49:47.005Z,4.80
2022-10-12T22:52:14.055Z,5.18
2022-10-12T22:54:41.081Z,4.78
2022-10-12T22:57:07.653Z,4.93
2022-10-12T22:59:34.492Z,4.38
2022-10-12T23:02:01.042Z,4.57
2022-10-12T23:04:29.579Z,4.90
2022-10-12T23:06:56.088Z,4.43
2022-10-12T23:09:23.587Z,4.10
2022-10-12T23:11:51.909Z,4.57
2022-10-12T23:14:18.469Z,5.00
2022-10-12T23:16:45.001Z,4.72
2022-10-12T23:19:11.551Z,4.50
2022-10-12T23:21:38.092Z,5.13
2022-10-12T23:24:05.224Z,4.55
2022-10-12T23:26:31.957Z,4.88
2022-10-12T23:29:03.638Z,4.43
2022-10-12T23:31:31.014Z,4.45
2022-10-12T23:34:04.690Z,4.70
2022-10-12T23:36:34.094Z,4.85
2022-10-12T23:39:01.842Z,4.63
2022-10-12T23:41:28.729Z,4.85
2022-10-12T23:43:55.363Z,4.30
2022-10-12T23:46:22.334Z,4.57
2022-10-12T23:48:48.953Z,4.63
2022-10-12T23:51:15.488Z,3.95
2022-10-12T23:53:42.750Z,4.32
2022-10-12T23:56:11.116Z,4.85
2022-10-12T23:58:37.812Z,5.22
